EBCI - Charleroi/Gosselies, Belgium
Distance de la station: NE 18km
Mise à jour: 24/10/2019 05:50
clair
clair
 Wind from S
Vent: S 13 km/h
Température: 13°C
Point de rosée: 11°C
Humidité: 88%
Baromètre: 1007 hPa
Résumé: clair
Visibilité: greater than 10 km
2019/10/24 03:50 EBCI 240350Z 17007KT CAVOK 13/11 Q1007 NOSIG
EBFS - Florennes, Belgium
Distance de la station: ESE 31km
Mise à jour: 24/10/2019 05:55
nuageux
nuageux
 Wind from SSE
Vent: SSE 11 km/h
Température: 12°C
Point de rosée: 11°C
Humidité: 94%
Baromètre: 1007 hPa
Ciel: nuageux
Visibilité: 6 km
Détails du ciel: quelques nuages 2743 m
partiellement nuageux 3048 m
nuageux 3658 m
2019/10/24 03:55 EBFS 240355Z AUTO 15006KT 6000 FEW090/// SCT100/// BKN120/// 12/11 Q1007 WHT
EBCV - Chievres, Belgium
Distance de la station: NO 40km
Mise à jour: 24/10/2019 05:55
partiellement nuageux
partiellement nuageux
 Wind from SE
Vent: SE 11 km/h
Température: 13°C
Point de rosée: 12°C
Humidité: 94%
Baromètre: 1006 hPa
Ciel: partiellement nuageux
Visibilité: 7 km
Détails du ciel: partiellement nuageux 6706 m
2019/10/24 03:55 EBCV 240355Z AUTO 14006KT 7000 SCT220/// 13/12 Q1006 WHT
 
EBBE - Beauvechain, Belgium
Distance de la station: NE 57km
Mise à jour: 24/10/2019 05:55
nuageux
nuageux
 Wind from SSO
Vent: SSO 7 km/h
Température: 13°C
Point de rosée: 12°C
Humidité: 94%
Baromètre: 1007 hPa
Ciel: nuageux
Visibilité: 10 km
Détails du ciel: quelques nuages 4572 m
nuageux 7010 m
2019/10/24 03:55 EBBE 240355Z AUTO 20004KT 9999 FEW150/// BKN230/// 13/12 Q1007 BLU
EBBR - Brussels National, Belgium
Distance de la station: NNE 63km
Mise à jour: 24/10/2019 05:50
clair
clair
 Wind from S
Vent: S 13 km/h
Température: 13°C
Point de rosée: 11°C
Humidité: 88%
Baromètre: 1006 hPa
Résumé: clair
Visibilité: greater than 10 km
2019/10/24 03:50 EBBR 240350Z 19007KT CAVOK 13/11 Q1006 NOSIG
LFQI - Cambrai/Epinoy, France
Distance de la station: O 82km
Mise à jour: 29/06/2012 12:30
NOT Current

 Wind from SO
Vent: SO 17 km/h
Température: 18°C
Point de rosée: 14°C
Humidité: 78%
Baromètre: 1009 hPa
2012/06/29 10:30 LFQI 291030Z AUTO 22009KT //// // ///////// 18/14 Q1009
 
LFQQ - Lille/Lesquin, France
Distance de la station: ONO 86km
Mise à jour: 24/10/2019 06:00
partiellement nuageux
partiellement nuageux
 Wind from SE
Vent: SE 9 km/h
Température: 12°C
Point de rosée: 11°C
Humidité: 94%
Baromètre: 1005 hPa
Ciel: partiellement nuageux
Visibilité: 6 km
2019/10/24 04:00 LFQQ 240400Z AUTO 13005KT 6000 NSC 12/11 Q1005 TEMPO 4000 BR BKN008
EBLG - Bierset/Liege, Belgium
Distance de la station: ENE 89km
Mise à jour: 24/10/2019 05:50
partiellement nuageux
partiellement nuageux
 Wind from S
Vent: S 17 km/h
Température: 13°C
Point de rosée: 11°C
Humidité: 88%
Baromètre: 1007 hPa
Ciel: partiellement nuageux
Visibilité: 8 km
2019/10/24 03:50 EBLG 240350Z 17009KT 130V200 8000 NSC 13/11 Q1007 NOSIG
EBDT - Schaffen, Belgium
Distance de la station: NE 93km
Mise à jour: 24/10/2019 06:08
nuageux
nuageux
 Wind from SSE
Vent: SSE 7 km/h
Température: 11°C
Point de rosée: 11°C
Humidité: 100%
Baromètre: 1007 hPa
Ciel: nuageux
Visibilité: 5 km
Détails du ciel: nuageux 6401 m
2019/10/24 04:08 EBDT 240408Z AUTO 15004KT 4900 BKN210/// 11/11 Q1007 GRN
 
EBAW - Antwerp/Deurne, Belgium
Distance de la station: N 96km
Mise à jour: 24/10/2019 05:50
clair
clair
 Wind from varies
Vent: varies 4 km/h
Température: 12°C
Point de rosée: 11°C
Humidité: 94%
Baromètre: 1006 hPa
Ciel: clair
Visibilité: 6 km
2019/10/24 03:50 EBAW 240350Z AUTO VRB02KT 6000 // NCD 12/11 Q1006
LFAQ - Bray, France
Distance de la station: OSO 119km
Mise à jour: 24/10/2019 06:00
brume, partiellement nuageux
brume, partiellement nuageux
 Wind from SE
Vent: SE 17 km/h
Température: 12°C
Point de rosée: 12°C
Humidité: 100%
Baromètre: 1006 hPa
Résumé: brume
Ciel: partiellement nuageux
Visibilité: 5 km
2019/10/24 04:00 LFAQ 240400Z AUTO 14009KT 4700 BR NSC 12/12 Q1006
LFSR - Reims/Champagne, France
Distance de la station: S 120km
Mise à jour: 16/04/2012 09:00
NOT Current
partiellement nuageux
partiellement nuageux
 Wind from N
Vent: N 17 km/h
Température: 4°C
Température ressentie: 0°C
Point de rosée: 0°C
Humidité: 75%
Baromètre: 1022 hPa
Ciel: partiellement nuageux
Visibilité: 10 km
2012/04/16 07:00 LFSR 160700Z AUTO 01009KT 340V070 9999 NSC 04/00 Q1022
 
EHWO - Woensdrecht, Netherlands
Distance de la station: N 122km
Mise à jour: 24/10/2019 05:55
brume, couvert
brume, couvert
 Wind from varies
Vent: varies 4 km/h
Température: 13°C
Point de rosée: 12°C
Humidité: 94%
Baromètre: 1005 hPa
Résumé: brume
Ciel: couvert
Visibilité: 9 km
Détails du ciel: couvert 4572 m
2019/10/24 03:55 EHWO 240355Z AUTO VRB02KT 9000 BR OVC150 13/12 Q1005 BLU
EHBK - Zuid-Limburg, Netherlands
Distance de la station: ENE 123km
Mise à jour: 24/10/2019 05:55
partiellement nuageux
partiellement nuageux
 Wind from S
Vent: S 11 km/h
Température: 12°C
Point de rosée: 10°C
Humidité: 88%
Baromètre: 1007 hPa
Ciel: partiellement nuageux
Visibilité: 10 km
2019/10/24 03:55 EHBK 240355Z AUTO 17006KT 9999 NSC 12/10 Q1007 NOSIG
EBBL - Kleine-Brogel, Belgium
Distance de la station: NE 124km
Mise à jour: 24/10/2019 05:55
partiellement nuageux
partiellement nuageux
 Wind from varies
Vent: varies 4 km/h
Température: 12°C
Point de rosée: 11°C
Humidité: 94%
Baromètre: 1007 hPa
Ciel: partiellement nuageux
Visibilité: 10 km
Détails du ciel: partiellement nuageux 6706 m
2019/10/24 03:55 EBBL 240355Z AUTO VRB02KT 9999 SCT220/// 12/11 Q1007 BLU
 
EBLB - Elsenborn, Belgium
Distance de la station: E 135km
Mise à jour: 24/10/2019 05:55
brouillard, couvert
brouillard, couvert
 Wind from OSO
Vent: OSO 6 km/h
Température: 10°C
Point de rosée: 10°C
Humidité: 100%
Baromètre: 1009 hPa
Résumé: brouillard
Ciel: couvert
Visibilité: 0 km
Détails du ciel: couvert 61 m
2019/10/24 03:55 EBLB 240355Z AUTO 24003KT 0300 FG OVC002/// 10/10 Q1009 RED
EBOS - Oostende Airport, Belgium
Distance de la station: NO 136km
Mise à jour: 24/10/2019 05:50
brume, partiellement nuageux
brume, partiellement nuageux
 Wind from calm
Vent: calme
Température: 9°C
Point de rosée: 8°C
Humidité: 94%
Baromètre: 1005 hPa
Résumé: brume
Ciel: partiellement nuageux
Visibilité: 2 km
2019/10/24 03:50 EBOS 240350Z 00000KT 2200 BR NSC 09/08 Q1005 TEMPO 1200 BR
EBFN - Koksijde, Belgium
Distance de la station: NO 140km
Mise à jour: 24/10/2019 05:55
brume, partiellement nuageux
brume, partiellement nuageux
 Wind from varies
Vent: varies 4 km/h
Température: 11°C
Point de rosée: 11°C
Humidité: 100%
Baromètre: 1005 hPa
Résumé: brume
Ciel: partiellement nuageux
Visibilité: 1 km
Détails du ciel: partiellement nuageux 6706 m
2019/10/24 03:55 EBFN 240355Z AUTO VRB02KT 1200 BR SCT220/// 11/11 Q1005 AMB
 
ETNG - Geilenkirchen, Germany
Distance de la station: ENE 142km
Mise à jour: 24/10/2019 05:50
clair
clair
 Wind from E
Vent: E 4 km/h
Température: 9°C
Point de rosée: 9°C
Humidité: 100%
Baromètre: 1007 hPa
Résumé: clair
Visibilité: greater than 10 km
2019/10/24 03:50 ETNG 240350Z 10002KT CAVOK 09/09 Q1007
EHGR - Gilze-Rijen, Netherlands
Distance de la station: NNE 143km
Mise à jour: 24/10/2019 06:06
brume, clair
brume, clair
 Wind from S
Vent: S 7 km/h
Température: 12°C
Point de rosée: 11°C
Humidité: 94%
Baromètre: 1006 hPa
Résumé: brume
Ciel: clair
Visibilité: 7 km
2019/10/24 04:06 EHGR 240406Z AUTO 18004KT 7000 BR NCD 12/11 Q1006 WHT
EHEH - Eindhoven, Netherlands
Distance de la station: NNE 147km
Mise à jour: 24/10/2019 06:03
brume, couvert
brume, couvert
 Wind from SSE
Vent: SSE 7 km/h
Température: 12°C
Point de rosée: 11°C
Humidité: 94%
Baromètre: 1006 hPa
Résumé: brume
Ciel: couvert
Visibilité: 8 km
Détails du ciel: couvert 11582 m
2019/10/24 04:03 EHEH 240403Z AUTO 15004KT 8000 BR OVC380 12/11 Q1006 BLU
 
ELLX - Luxembourg, Luxembourg
Distance de la station: ESE 162km
Mise à jour: 24/10/2019 05:50
brouillard, couvert
brouillard, couvert
 Wind from SSE
Vent: SSE 9 km/h
Température: 11°C
Point de rosée: 11°C
Humidité: 100%
Baromètre: 1010 hPa
Résumé: brouillard
Ciel: couvert
Visibilité: 0 km
Détails du ciel: couvert 0 m
2019/10/24 03:50 ELLX 240350Z AUTO 15005KT 130V200 0100 R24/0375N FG VV000 11/11 Q1010 NOSIG
EHVK - Volkel, Netherlands
Distance de la station: NE 174km
Mise à jour: 24/10/2019 05:55
brume, partiellement nuageux
brume, partiellement nuageux
 Wind from SSO
Vent: SSO 9 km/h
Température: 12°C
Point de rosée: 11°C
Humidité: 94%
Baromètre: 1006 hPa
Résumé: brume
Ciel: partiellement nuageux
Visibilité: 8 km
Détails du ciel: partiellement nuageux 10973 m
2019/10/24 03:55 EHVK 240355Z AUTO 20005KT 140V240 8000 BR SCT360 12/11 Q1006 BLU
LFOK - Chalons/Vatry, France
Distance de la station: S 174km
Mise à jour: 24/10/2019 06:00
clair
clair
 Wind from SSE
Vent: SSE 17 km/h
Température: 13°C
Point de rosée: 12°C
Humidité: 94%
Baromètre: 1008 hPa
Résumé: clair
Visibilité: greater than 10 km
2019/10/24 04:00 LFOK 240400Z AUTO 16009KT CAVOK 13/12 Q1008 NOSIG
Script from Saratoga-Weather.org